METAR Data
IDs: Format: Raw Decoded Include TAF

Data at: 1402 UTC 09 Dec 2019

METAR for:KAUS (Austin/Bergstrom Int, TX, US)
Text:KAUS 091353Z 21004KT 4SM BR BKN006 OVC012 19/18 A2988 RMK AO2 DZE1258 SLP113 P0000 T01890178
Temperature: 18.9°C ( 66°F)
Dewpoint: 17.8°C ( 64°F) [RH = 93%]
Pressure (altimeter):29.88 inches Hg (1011.9 mb) [Sea level pressure: 1011.3 mb]
Winds:from the SSW (210 degrees) at 5 MPH (4 knots; 2.1 m/s)
Visibility: 4 sm ( 6 km)
Ceiling:600 feet AGL
Clouds: broken clouds at 600 feet AGL, overcast cloud deck at 1200 feet AGL
Weather:BR (mist)